Time;durP1;ratioP1;P1;durP2;ratioP2;P2;SDS_P1;SDS_P2;PMS_P1;PMS_P2;Temp;Humidity;BMP_temperature;BMP_pressure;BME280_temperature;BME280_humidity;BME280_pressure;Samples;Min_cycle;Max_cycle;Signal;HPM_P1;HPM_P2
2022/05/17 00:04:58;;;;;;;6.60;2.30;;;;;;;11.54;45.91;99743.95;431698;1273;143318;-50
2022/05/17 00:15:06;;;;;;;3.40;1.90;;;;;;;11.48;47.12;99747.86;442767;1271;143438;-50
2022/05/17 00:25:14;;;;;;;3.10;2.00;;;;;;;11.41;47.80;99754.83;444582;1273;141116;-49
2022/05/17 00:35:21;;;;;;;3.50;2.10;;;;;;;11.25;49.29;99740.25;446297;1273;141846;-49
2022/05/17 00:45:27;;;;;;;6.30;2.70;;;;;;;11.02;50.41;99743.78;447107;1273;142020;-49
2022/05/17 00:55:38;;;;;;;8.60;3.20;;;;;;;10.94;50.07;99742.20;446217;1273;142563;-51
2022/05/17 01:05:47;;;;;;;7.10;2.60;;;;;;;10.90;49.71;99738.04;447068;1273;141839;-48
2022/05/17 01:15:53;;;;;;;6.20;3.10;;;;;;;10.97;50.61;99740.28;447074;1273;141712;-50
2022/05/17 01:25:59;;;;;;;6.00;3.10;;;;;;;10.85;50.87;99731.40;446322;1273;142587;-53
2022/05/17 01:36:08;;;;;;;4.70;2.40;;;;;;;10.71;51.78;99717.21;447078;1271;142154;-51
2022/05/17 01:46:13;;;;;;;11.20;2.70;;;;;;;10.60;52.73;99714.71;446913;1273;142234;-50
2022/05/17 01:56:19;;;;;;;10.00;2.80;;;;;;;10.56;53.39;99716.37;442794;1273;141188;-48
2022/05/17 02:06:25;;;;;;;6.60;3.20;;;;;;;10.61;52.76;99711.63;447015;1273;142438;-50
2022/05/17 02:16:34;;;;;;;2.80;1.80;;;;;;;10.72;51.91;99710.13;446892;1271;141654;-49
2022/05/17 02:26:39;;;;;;;5.20;1.80;;;;;;;10.79;50.96;99707.76;431871;1273;210555;-50
2022/05/17 02:36:45;;;;;;;5.60;1.90;;;;;;;10.88;49.74;99705.43;442345;1273;141520;-52
2022/05/17 02:46:51;;;;;;;7.00;1.60;;;;;;;11.01;49.41;99700.58;436693;1273;141536;-47
2022/05/17 02:56:57;;;;;;;4.30;2.30;;;;;;;11.16;48.31;99704.39;442570;1273;143390;-48
2022/05/17 03:07:03;;;;;;;6.50;2.90;;;;;;;11.26;48.15;99703.19;431711;1270;293855;-51
2022/05/17 03:17:12;;;;;;;2.30;1.60;;;;;;;11.45;47.28;99716.16;435373;1273;141216;-47
2022/05/17 03:27:20;;;;;;;2.40;1.60;;;;;;;11.67;46.39;99722.42;429881;1273;141725;-48
2022/05/17 03:37:26;;;;;;;5.80;2.00;;;;;;;11.85;45.80;99741.77;430810;1273;145142;-50
2022/05/17 03:47:33;;;;;;;5.70;2.60;;;;;;;12.22;45.34;99752.52;430783;1273;140840;-51
2022/05/17 03:57:38;;;;;;;4.70;1.80;;;;;;;12.54;44.80;99754.52;430283;1273;144149;-47
2022/05/17 04:07:44;;;;;;;5.00;2.20;;;;;;;12.84;44.67;99759.50;429020;1273;146924;-48
2022/05/17 04:17:53;;;;;;;3.30;2.90;;;;;;;13.61;44.46;99773.14;429879;1273;141174;-49
2022/05/17 04:27:59;;;;;;;5.40;3.20;;;;;;;14.67;43.72;99777.85;429768;1273;146455;-54
2022/05/17 04:38:06;;;;;;;6.10;4.30;;;;;;;16.41;41.95;99779.73;430066;1273;141556;-48
2022/05/17 04:48:13;;;;;;;5.50;2.30;;;;;;;18.96;39.58;99776.95;431409;1273;140699;-47
2022/05/17 04:58:19;;;;;;;2.40;1.70;;;;;;;22.17;34.88;99772.06;433714;1273;140733;-50
2022/05/17 05:08:25;;;;;;;6.10;3.40;;;;;;;25.03;31.23;99768.60;429022;1273;147002;-52
2022/05/17 05:18:33;;;;;;;3.90;1.70;;;;;;;26.94;28.23;99774.52;431176;1274;144646;-51
2022/05/17 05:28:39;;;;;;;5.30;1.30;;;;;;;27.66;25.83;99775.60;429243;1273;142106;-52
2022/05/17 05:38:50;;;;;;;3.30;1.50;;;;;;;26.97;25.02;99774.77;437277;1273;141583;-51
2022/05/17 05:48:55;;;;;;;4.80;1.60;;;;;;;25.50;25.46;99774.07;435655;1273;141527;-52
2022/05/17 05:59:02;;;;;;;3.10;1.70;;;;;;;24.13;26.14;99780.16;434444;1273;141307;-54
2022/05/17 06:09:07;;;;;;;4.50;2.00;;;;;;;22.44;27.20;99781.42;443089;1273;144792;-53
2022/05/17 06:19:13;;;;;;;7.40;2.00;;;;;;;20.53;28.91;99796.36;447113;1273;142621;-53
2022/05/17 06:29:19;;;;;;;3.20;1.70;;;;;;;19.79;30.26;99799.89;446371;1273;141864;-53
2022/05/17 06:39:25;;;;;;;7.80;1.80;;;;;;;19.21;30.89;99801.94;447082;1273;141252;-54
2022/05/17 06:49:31;;;;;;;3.70;1.40;;;;;;;19.03;31.63;99807.98;446996;1273;141704;-51
2022/05/17 06:59:39;;;;;;;5.30;2.60;;;;;;;19.71;31.78;99806.20;447082;1272;140299;-53
2022/05/17 07:13:07;;;;;;;4.30;2.00;;;;;;;20.98;30.87;99806.42;447123;1273;142132;-51
2022/05/17 07:20:12;;;;;;;2.70;2.00;;;;;;;21.20;30.53;99803.21;444124;1273;140456;-51
2022/05/17 07:30:18;;;;;;;4.20;2.20;;;;;;;20.10;31.01;99806.78;438301;1273;143014;-51
2022/05/17 07:40:25;;;;;;;4.20;1.20;;;;;;;19.57;31.88;99818.39;443178;1273;141081;-49
2022/05/17 07:50:31;;;;;;;5.50;2.20;;;;;;;19.24;32.12;99824.05;443704;1273;141809;-52
2022/05/17 08:00:38;;;;;;;3.40;1.00;;;;;;;19.18;32.21;99823.20;433046;1272;141335;-48
2022/05/17 08:10:44;;;;;;;3.10;1.90;;;;;;;19.13;32.08;99826.54;436358;1273;144066;-51
2022/05/17 08:20:50;;;;;;;3.80;1.80;;;;;;;19.03;31.78;99829.05;447151;1273;141331;-53
2022/05/17 08:30:56;;;;;;;1.90;0.90;;;;;;;19.58;31.48;99827.01;437226;1273;140657;-51
2022/05/17 08:41:11;;;;;;;2.60;0.90;;;;;;;20.19;31.02;99833.08;435569;1273;141220;-52
2022/05/17 08:51:25;;;;;;;1.00;0.90;;;;;;;19.83;30.81;99833.46;442098;1273;141889;-48
2022/05/17 09:01:47;;;;;;;0.70;0.50;;;;;;;20.05;30.69;99836.80;447099;1273;140417;-48
2022/05/17 09:12:00;;;;;;;4.10;1.70;;;;;;;20.41;30.09;99839.42;445298;1273;142860;-58
2022/05/17 09:22:06;;;;;;;2.50;0.80;;;;;;;20.96;29.68;99839.73;447037;1273;143330;-52
2022/05/17 09:32:23;;;;;;;1.70;1.10;;;;;;;21.16;29.29;99838.34;446304;1272;141829;-49
2022/05/17 09:42:33;;;;;;;1.90;0.80;;;;;;;21.03;29.20;99834.55;447120;1272;143199;-50
2022/05/17 09:52:44;;;;;;;2.20;1.00;;;;;;;21.11;29.02;99832.10;446260;1273;141798;-52
2022/05/17 10:02:55;;;;;;;0.90;0.70;;;;;;;21.80;28.31;99824.93;447075;1272;141189;-52
2022/05/17 10:13:10;;;;;;;2.70;1.00;;;;;;;21.98;27.65;99827.02;447074;1273;141801;-52
2022/05/17 10:23:28;;;;;;;2.40;0.70;;;;;;;21.91;27.48;99818.88;441962;1273;142563;-53
2022/05/17 10:33:39;;;;;;;3.10;0.60;;;;;;;21.19;27.58;99825.05;445409;1272;141924;-50
2022/05/17 10:43:48;;;;;;;3.30;1.10;;;;;;;21.08;27.81;99822.24;446316;1271;141603;-52
2022/05/17 10:54:08;;;;;;;2.90;1.10;;;;;;;21.19;27.77;99823.16;447078;1273;141423;-50
2022/05/17 11:04:35;;;;;;;1.00;0.70;;;;;;;20.97;27.77;99822.05;441910;1272;142538;-50
2022/05/17 11:14:49;;;;;;;4.20;1.20;;;;;;;20.85;27.68;99815.91;443478;1273;142061;-51
2022/05/17 11:25:19;;;;;;;5.10;0.80;;;;;;;20.92;27.57;99816.08;432953;1273;144130;-48
2022/05/17 11:35:49;;;;;;;5.70;1.00;;;;;;;20.63;27.45;99821.85;432837;1273;141840;-52
2022/05/17 11:45:57;;;;;;;3.60;0.70;;;;;;;20.64;27.68;99819.69;441043;1273;142021;-52
2022/05/17 11:56:20;;;;;;;2.10;0.90;;;;;;;20.85;27.69;99817.50;442158;1272;141980;-52
2022/05/17 12:07:07;;;;;;;3.80;1.10;;;;;;;21.02;27.60;99805.89;447128;1273;144490;-49
2022/05/17 12:17:20;;;;;;;2.60;0.70;;;;;;;20.91;27.41;99806.81;437304;1273;141146;-50
2022/05/17 12:27:30;;;;;;;3.70;1.30;;;;;;;20.84;27.39;99811.75;442263;1273;142103;-50
2022/05/17 12:37:41;;;;;;;3.50;1.50;;;;;;;20.53;27.63;99812.80;446358;1273;142612;-50
2022/05/17 12:47:51;;;;;;;3.50;0.80;;;;;;;20.31;27.86;99810.04;443614;1273;141414;-49
2022/05/17 12:58:08;;;;;;;0.70;0.70;;;;;;;20.06;27.70;99820.68;447133;1272;141465;-53
2022/05/17 13:08:16;;;;;;;1.70;0.50;;;;;;;19.71;28.06;99816.49;440639;1272;146425;-50
2022/05/17 13:18:24;;;;;;;6.10;1.20;;;;;;;19.76;28.21;99812.41;440659;1273;145297;-51
2022/05/17 13:28:32;;;;;;;2.30;1.00;;;;;;;19.53;28.29;99806.14;447120;1273;141111;-51
2022/05/17 13:38:38;;;;;;;2.80;0.60;;;;;;;19.23;28.66;99812.48;432769;1273;142440;-51
2022/05/17 13:48:58;;;;;;;1.60;0.50;;;;;;;19.04;28.91;99814.60;438451;1273;141572;-49
2022/05/17 13:59:06;;;;;;;2.30;0.60;;;;;;;18.99;29.27;99817.19;437348;1273;140884;-49
2022/05/17 14:19:38;;;;;;;5.60;0.60;;;;;;;18.91;28.21;99828.01;431214;1273;140789;-52
2022/05/17 14:29:44;;;;;;;2.50;0.40;;;;;;;18.76;28.61;99841.68;431781;1273;141825;-50
2022/05/17 14:39:50;;;;;;;3.10;0.60;;;;;;;18.63;28.83;99843.06;446879;1271;141062;-53
2022/05/17 14:49:59;;;;;;;3.00;0.30;;;;;;;18.73;28.76;99842.70;445540;1271;141344;-50
2022/05/17 15:00:08;;;;;;;4.20;1.30;;;;;;;18.72;28.24;99854.64;439527;1273;141470;-51
2022/05/17 15:10:15;;;;;;;2.70;0.70;;;;;;;18.68;27.83;99848.48;436287;1273;264833;-49
2022/05/17 15:20:22;;;;;;;3.50;0.50;;;;;;;18.49;27.98;99856.40;435086;1273;141438;-49
2022/05/17 15:30:32;;;;;;;2.10;0.70;;;;;;;18.08;28.79;99856.62;446883;1273;141528;-49
2022/05/17 15:40:38;;;;;;;2.20;0.60;;;;;;;17.79;29.06;99850.87;446173;1273;140325;-53
2022/05/17 16:01:14;;;;;;;2.90;0.40;;;;;;;17.48;29.42;99856.31;438981;1273;141188;-52
2022/05/17 16:21:44;;;;;;;6.90;1.30;;;;;;;17.03;29.90;99845.91;443800;1274;142699;-56
2022/05/17 16:31:50;;;;;;;1.90;1.10;;;;;;;16.93;30.00;99844.91;443591;1274;196631;-51
2022/05/17 16:41:56;;;;;;;1.20;1.00;;;;;;;16.78;30.32;99841.46;441058;1273;139835;-49
2022/05/17 16:52:04;;;;;;;10.60;1.50;;;;;;;16.50;30.75;99850.33;435626;1273;141465;-48
2022/05/17 17:02:18;;;;;;;3.90;0.90;;;;;;;16.29;30.94;99861.29;433947;1273;141013;-47
2022/05/17 17:12:24;;;;;;;2.00;0.80;;;;;;;17.20;30.48;99860.35;442722;1272;143220;-47
2022/05/17 17:22:30;;;;;;;4.40;1.20;;;;;;;16.49;30.56;99878.16;433355;1273;141870;-50
2022/05/17 17:43:03;;;;;;;;;;;;;;;15.19;32.22;99912.79;429716;1276;141932;-49
2022/05/17 17:53:09;;;;;;;4.70;0.90;;;;;;;14.75;33.01;99927.92;445371;1273;128172;-49
2022/05/17 18:03:16;;;;;;;2.10;0.80;;;;;;;14.44;33.71;99949.41;439060;1273;141061;-47
2022/05/17 18:13:31;;;;;;;7.60;1.10;;;;;;;14.10;34.33;99963.71;429877;1273;141178;-46
2022/05/17 18:23:38;;;;;;;1.60;0.60;;;;;;;13.72;34.59;99984.85;431264;1273;141220;-49
2022/05/17 18:33:45;;;;;;;1.50;0.90;;;;;;;13.39;34.46;100009.52;432395;1273;140038;-52
2022/05/17 18:43:51;;;;;;;3.80;0.70;;;;;;;13.07;34.56;100018.14;430340;1273;141807;-48
2022/05/17 18:53:56;;;;;;;3.70;0.80;;;;;;;12.75;34.55;100035.20;429679;1274;141988;-46
2022/05/17 19:04:02;;;;;;;3.00;0.80;;;;;;;12.49;34.01;100056.73;430386;1273;144301;-51
2022/05/17 19:14:08;;;;;;;8.00;1.00;;;;;;;12.24;33.84;100073.74;430537;1273;141175;-49
2022/05/17 19:24:16;;;;;;;1.60;0.90;;;;;;;12.02;33.82;100079.84;430529;1273;141386;-47
2022/05/17 19:34:26;;;;;;;2.80;1.10;;;;;;;11.81;34.01;100102.16;430551;1273;141669;-51
2022/05/17 19:44:34;;;;;;;2.60;0.80;;;;;;;11.47;34.24;100113.80;429675;1274;142299;-51
2022/05/17 19:54:45;;;;;;;1.80;1.20;;;;;;;11.17;34.65;100129.40;431290;1273;143955;-50
2022/05/17 20:04:51;;;;;;;3.70;0.90;;;;;;;10.92;35.02;100145.88;429610;1273;140716;-46
2022/05/17 20:14:57;;;;;;;5.40;1.20;;;;;;;10.66;35.69;100164.09;431266;1273;140941;-47
2022/05/17 20:25:03;;;;;;;5.40;1.70;;;;;;;10.40;36.02;100171.97;429912;1273;142159;-47
2022/05/17 20:35:11;;;;;;;8.40;1.80;;;;;;;10.13;36.67;100186.30;429767;1273;141669;-48
2022/05/17 20:45:20;;;;;;;5.90;1.30;;;;;;;9.86;37.20;100198.05;430475;1273;145407;-48
2022/05/17 20:55:27;;;;;;;1.30;0.70;;;;;;;9.60;37.87;100215.80;431014;1273;195952;-48
2022/05/17 21:05:35;;;;;;;2.30;1.30;;;;;;;9.32;38.31;100221.34;430319;1273;146690;-47
2022/05/17 21:15:40;;;;;;;;;;;;;;;9.16;38.87;100233.61;430568;1273;152545;-51
2022/05/17 21:25:46;;;;;;;4.80;1.60;;;;;;;8.87;39.44;100250.66;430062;1274;130969;-47
2022/05/17 21:35:55;;;;;;;3.00;1.20;;;;;;;8.65;39.95;100256.05;431195;1274;142084;-53
2022/05/17 21:46:05;;;;;;;3.70;1.30;;;;;;;8.43;40.26;100269.73;430968;1274;143038;-49
2022/05/17 21:56:12;;;;;;;2.50;1.70;;;;;;;8.21;41.06;100279.58;432579;1274;145377;-49
2022/05/17 22:06:17;;;;;;;2.00;1.20;;;;;;;7.95;41.67;100291.84;433260;1274;141228;-47
2022/05/17 22:16:26;;;;;;;1.80;1.30;;;;;;;7.85;42.09;100308.42;430421;1274;141187;-47
2022/05/17 22:26:34;;;;;;;4.40;1.10;;;;;;;7.63;42.19;100317.36;431966;1274;141681;-50
2022/05/17 22:36:40;;;;;;;4.30;1.20;;;;;;;7.47;42.78;100333.66;436463;1273;141942;-48
2022/05/17 22:47:01;;;;;;;1.40;1.10;;;;;;;7.20;43.04;100346.50;441689;1273;144619;-52
2022/05/17 22:57:07;;;;;;;3.90;1.20;;;;;;;7.00;43.68;100355.27;446345;1273;140965;-48
2022/05/17 23:07:13;;;;;;;2.70;1.50;;;;;;;6.84;44.35;100372.02;445395;1274;141286;-52
2022/05/17 23:17:19;;;;;;;3.50;1.20;;;;;;;6.70;44.64;100382.29;446040;1274;141605;-48
2022/05/17 23:37:48;;;;;;;2.90;1.00;;;;;;;6.26;45.71;100400.98;439265;1273;142282;-51
2022/05/17 23:47:55;;;;;;;2.20;1.20;;;;;;;5.99;46.12;100408.77;443427;1273;140604;-49
2022/05/17 23:58:01;;;;;;;1.50;0.80;;;;;;;5.79;46.72;100422.77;431144;1273;145715;-52
